Time;durP1;ratioP1;P1;durP2;ratioP2;P2;SDS_P1;SDS_P2;PMS_P1;PMS_P2;Temp;Humidity;BMP_temperature;BMP_pressure;BME280_temperature;BME280_humidity;BME280_pressure;Samples;Min_cycle;Max_cycle;Signal;HPM_P1;HPM_P2
2023/08/03 00:00:33;;;;;;;3.45;1.15;;;;;;;;;;4968487;28;20056;-83
2023/08/03 00:02:58;;;;;;;3.17;1.10;;;;;;;;;;4995011;28;20042;-82
2023/08/03 00:05:24;;;;;;;2.40;1.08;;;;;;;;;;5013985;28;20330;-82
2023/08/03 00:07:50;;;;;;;2.40;1.00;;;;;;;;;;4985384;28;20128;-82
2023/08/03 00:10:17;;;;;;;2.88;1.10;;;;;;;;;;4990508;28;20042;-82
2023/08/03 00:12:43;;;;;;;3.30;1.30;;;;;;;;;;4987325;28;20064;-82
2023/08/03 00:15:09;;;;;;;5.55;1.10;;;;;;;;;;4962164;28;20563;-83
2023/08/03 00:17:35;;;;;;;2.38;1.08;;;;;;;;;;5004270;28;20029;-83
2023/08/03 00:20:03;;;;;;;2.92;1.30;;;;;;;;;;5005572;28;20042;-82
2023/08/03 00:22:29;;;;;;;2.35;1.10;;;;;;;;;;4994640;28;20441;-82
2023/08/03 00:24:55;;;;;;;2.42;1.20;;;;;;;;;;5006234;28;20121;-82
2023/08/03 00:27:20;;;;;;;3.03;1.17;;;;;;;;;;4987574;28;20025;-82
2023/08/03 00:29:53;;;;;;;2.55;1.05;;;;;;;;;;4994347;28;20046;-82
2023/08/03 00:32:19;;;;;;;2.67;0.90;;;;;;;;;;5016225;28;20492;-82
2023/08/03 00:34:45;;;;;;;3.78;1.23;;;;;;;;;;5004739;28;20034;-82
2023/08/03 00:37:16;;;;;;;2.90;1.20;;;;;;;;;;5007778;28;20046;-83
2023/08/03 00:39:41;;;;;;;1.92;1.02;;;;;;;;;;4992593;28;20034;-83
2023/08/03 00:42:07;;;;;;;2.85;1.35;;;;;;;;;;4992325;28;20046;-83
2023/08/03 00:44:33;;;;;;;3.53;1.30;;;;;;;;;;4983685;28;20504;-83
2023/08/03 00:46:58;;;;;;;2.78;1.10;;;;;;;;;;4999497;28;20034;-82
2023/08/03 00:49:30;;;;;;;2.95;1.30;;;;;;;;;;5004171;28;20518;-83
2023/08/03 00:51:56;;;;;;;3.08;1.17;;;;;;;;;;5004008;28;20496;-83
2023/08/03 00:54:24;;;;;;;4.63;1.40;;;;;;;;;;5008023;28;20038;-83
2023/08/03 00:56:50;;;;;;;2.92;1.20;;;;;;;;;;4993824;28;20033;-83
2023/08/03 00:59:16;;;;;;;3.33;1.33;;;;;;;;;;5005621;28;20572;-83
2023/08/03 01:01:41;;;;;;;4.53;1.48;;;;;;;;;;5015613;28;20068;-83
2023/08/03 01:04:07;;;;;;;3.17;1.38;;;;;;;;;;5000616;28;20053;-82
2023/08/03 01:06:32;;;;;;;3.10;1.42;;;;;;;;;;4998428;28;20497;-83
2023/08/03 01:08:59;;;;;;;3.85;1.45;;;;;;;;;;5006395;28;20064;-83
2023/08/03 01:11:26;;;;;;;2.88;1.20;;;;;;;;;;5006153;28;20034;-82
2023/08/03 01:13:51;;;;;;;4.22;1.65;;;;;;;;;;5010718;28;20505;-82
2023/08/03 01:16:16;;;;;;;3.78;1.42;;;;;;;;;;5007688;28;20045;-83
2023/08/03 01:18:42;;;;;;;4.38;1.50;;;;;;;;;;5009729;28;20025;-83
2023/08/03 01:21:08;;;;;;;3.85;1.40;;;;;;;;;;4991816;28;20072;-83
2023/08/03 01:23:34;;;;;;;3.95;1.50;;;;;;;;;;5006199;28;20037;-83
2023/08/03 01:25:59;;;;;;;3.60;1.48;;;;;;;;;;5002654;28;20405;-83
2023/08/03 01:28:26;;;;;;;3.33;1.35;;;;;;;;;;4998070;28;20033;-83
2023/08/03 01:30:52;;;;;;;3.17;1.55;;;;;;;;;;4980816;28;20477;-83
2023/08/03 01:33:17;;;;;;;4.18;1.60;;;;;;;;;;4999624;28;20124;-84
2023/08/03 01:35:43;;;;;;;3.33;1.42;;;;;;;;;;4993852;28;20120;-84
2023/08/03 01:38:08;;;;;;;2.53;1.40;;;;;;;;;;5001729;28;20061;-83
2023/08/03 01:40:33;;;;;;;4.35;1.77;;;;;;;;;;5006370;28;20038;-84
2023/08/03 01:42:59;;;;;;;3.00;1.50;;;;;;;;;;5016252;28;20096;-83
2023/08/03 01:45:24;;;;;;;3.38;1.33;;;;;;;;;;4989317;28;20040;-83
2023/08/03 01:47:50;;;;;;;4.93;1.60;;;;;;;;;;5005680;28;20404;-83
2023/08/03 01:50:15;;;;;;;4.18;1.80;;;;;;;;;;5009943;28;20397;-83
2023/08/03 01:52:41;;;;;;;3.55;1.63;;;;;;;;;;5004298;28;20038;-84
2023/08/03 01:55:06;;;;;;;3.20;1.65;;;;;;;;;;4979191;28;20550;-83
2023/08/03 01:57:32;;;;;;;3.47;1.90;;;;;;;;;;4999660;28;20041;-83
2023/08/03 01:59:57;;;;;;;3.95;1.80;;;;;;;;;;5002896;28;20038;-83
2023/08/03 02:02:23;;;;;;;3.85;1.70;;;;;;;;;;5018779;28;20087;-83
2023/08/03 02:04:48;;;;;;;3.70;1.75;;;;;;;;;;4981380;28;20038;-84
2023/08/03 02:07:25;;;;;;;4.38;1.80;;;;;;;;;;4983408;28;20093;-84
2023/08/03 02:09:53;;;;;;;3.10;1.60;;;;;;;;;;4979143;28;20516;-83
2023/08/03 02:12:18;;;;;;;4.97;1.88;;;;;;;;;;5003000;28;20026;-83
2023/08/03 02:14:43;;;;;;;3.45;1.85;;;;;;;;;;4997484;28;20409;-83
2023/08/03 02:17:09;;;;;;;3.53;1.63;;;;;;;;;;5016853;28;20412;-83
2023/08/03 02:19:35;;;;;;;4.65;1.95;;;;;;;;;;5014995;28;20042;-83
2023/08/03 02:22:03;;;;;;;5.50;2.20;;;;;;;;;;5016324;28;20476;-83
2023/08/03 02:24:28;;;;;;;3.60;1.85;;;;;;;;;;5005531;28;20041;-83
2023/08/03 02:26:53;;;;;;;3.38;1.88;;;;;;;;;;5007093;28;20460;-82
2023/08/03 02:29:19;;;;;;;4.07;2.28;;;;;;;;;;5016711;28;20044;-83
2023/08/03 02:31:44;;;;;;;4.63;2.50;;;;;;;;;;5002163;28;20492;-83
2023/08/03 02:34:10;;;;;;;4.53;2.25;;;;;;;;;;5001584;28;20083;-83
2023/08/03 02:36:35;;;;;;;5.05;2.40;;;;;;;;;;5007999;28;20116;-83
2023/08/03 02:39:03;;;;;;;3.80;2.20;;;;;;;;;;5007639;28;20100;-82
2023/08/03 02:41:31;;;;;;;4.78;2.20;;;;;;;;;;4987769;28;20053;-83
2023/08/03 02:43:56;;;;;;;6.70;2.47;;;;;;;;;;5021780;28;20464;-83
2023/08/03 02:46:22;;;;;;;5.45;2.53;;;;;;;;;;5001487;28;20138;-83
2023/08/03 02:48:47;;;;;;;4.78;2.50;;;;;;;;;;5015816;28;20048;-83
2023/08/03 02:51:12;;;;;;;3.78;2.55;;;;;;;;;;5001987;28;20104;-83
2023/08/03 02:53:38;;;;;;;6.57;2.17;;;;;;;;;;5017541;28;20041;-83
2023/08/03 02:56:03;;;;;;;5.82;2.58;;;;;;;;;;5000967;28;20030;-82
2023/08/03 02:58:30;;;;;;;5.00;2.25;;;;;;;;;;5006871;28;20038;-83
2023/08/03 03:00:55;;;;;;;6.13;2.20;;;;;;;;;;5006583;28;20680;-83
2023/08/03 03:03:21;;;;;;;4.75;2.20;;;;;;;;;;5003499;28;20289;-82
2023/08/03 03:05:46;;;;;;;4.88;2.10;;;;;;;;;;5002671;28;20073;-83
2023/08/03 03:08:14;;;;;;;6.22;2.85;;;;;;;;;;5004279;28;20365;-83
2023/08/03 03:10:40;;;;;;;7.03;2.30;;;;;;;;;;5003913;28;20044;-82
2023/08/03 03:13:08;;;;;;;3.58;1.98;;;;;;;;;;5002600;28;20049;-82
2023/08/03 03:15:33;;;;;;;3.78;1.90;;;;;;;;;;4993822;28;20171;-83
2023/08/03 03:17:58;;;;;;;3.63;1.98;;;;;;;;;;4998668;28;20449;-83
2023/08/03 03:20:24;;;;;;;4.22;2.03;;;;;;;;;;4988430;28;20508;-82
2023/08/03 03:22:49;;;;;;;4.40;1.75;;;;;;;;;;4993448;28;20721;-82
2023/08/03 03:25:14;;;;;;;3.85;1.90;;;;;;;;;;5015169;28;20037;-83
2023/08/03 03:27:40;;;;;;;3.90;1.92;;;;;;;;;;5007822;28;20520;-83
2023/08/03 03:30:08;;;;;;;4.18;1.88;;;;;;;;;;5006288;28;20124;-82
2023/08/03 03:32:34;;;;;;;4.13;1.80;;;;;;;;;;4999006;28;20030;-83
2023/08/03 03:34:59;;;;;;;5.20;1.90;;;;;;;;;;4990278;28;20528;-83
2023/08/03 03:37:24;;;;;;;3.90;1.63;;;;;;;;;;4995759;28;20049;-82
2023/08/03 03:39:52;;;;;;;5.10;1.92;;;;;;;;;;4988876;28;20525;-82
2023/08/03 03:42:18;;;;;;;4.55;1.70;;;;;;;;;;4981893;28;20493;-83
2023/08/03 03:44:43;;;;;;;3.58;1.60;;;;;;;;;;4992875;28;20092;-83
2023/08/03 03:47:08;;;;;;;4.90;1.90;;;;;;;;;;5004008;28;20038;-83
2023/08/03 03:49:34;;;;;;;8.27;2.45;;;;;;;;;;4971186;28;20511;-83
2023/08/03 03:51:59;;;;;;;4.93;1.80;;;;;;;;;;4975092;28;20109;-83
2023/08/03 03:54:24;;;;;;;6.00;1.90;;;;;;;;;;5006395;28;20060;-83
2023/08/03 03:56:57;;;;;;;7.53;1.80;;;;;;;;;;4997957;28;20491;-82
2023/08/03 03:59:23;;;;;;;6.10;2.15;;;;;;;;;;5017290;28;20040;-83
2023/08/03 04:01:48;;;;;;;4.35;1.63;;;;;;;;;;5006392;28;20400;-82
2023/08/03 04:04:14;;;;;;;5.30;2.10;;;;;;;;;;4996324;28;20187;-83
2023/08/03 04:06:39;;;;;;;6.45;2.10;;;;;;;;;;5005101;28;20166;-83
2023/08/03 04:09:05;;;;;;;4.82;1.60;;;;;;;;;;4996162;28;20033;-82
2023/08/03 04:11:30;;;;;;;5.53;1.73;;;;;;;;;;4998175;28;20038;-83
2023/08/03 04:13:56;;;;;;;8.23;1.70;;;;;;;;;;5005261;28;20136;-83
2023/08/03 04:16:21;;;;;;;6.03;1.60;;;;;;;;;;4998697;28;20038;-82
2023/08/03 04:18:46;;;;;;;3.60;1.48;;;;;;;;;;5014683;28;20655;-82
2023/08/03 04:21:12;;;;;;;5.22;1.67;;;;;;;;;;5002908;28;20042;-83
2023/08/03 04:23:37;;;;;;;5.72;1.85;;;;;;;;;;5008030;28;20033;-83
2023/08/03 04:26:03;;;;;;;7.30;1.80;;;;;;;;;;5005008;28;20037;-83
2023/08/03 04:28:28;;;;;;;3.97;1.50;;;;;;;;;;5007111;28;20068;-83
2023/08/03 04:31:03;;;;;;;7.32;1.83;;;;;;;;;;5003768;28;20044;-83
2023/08/03 04:33:29;;;;;;;7.25;1.38;;;;;;;;;;5001208;28;20110;-83
2023/08/03 04:35:54;;;;;;;7.03;1.75;;;;;;;;;;5002338;28;20042;-83
2023/08/03 04:38:19;;;;;;;6.53;1.23;;;;;;;;;;5004653;28;20412;-81
2023/08/03 04:40:48;;;;;;;7.35;1.85;;;;;;;;;;4991928;28;20571;-83
2023/08/03 04:43:13;;;;;;;9.57;1.70;;;;;;;;;;4994518;28;20120;-83
2023/08/03 04:45:39;;;;;;;5.10;1.48;;;;;;;;;;5002103;28;20618;-83
2023/08/03 04:48:04;;;;;;;5.50;1.33;;;;;;;;;;4996240;28;20064;-83
2023/08/03 04:50:29;;;;;;;6.53;1.75;;;;;;;;;;5005572;28;20184;-83
2023/08/03 04:52:55;;;;;;;7.03;1.42;;;;;;;;;;4999316;28;20473;-83
2023/08/03 04:55:20;;;;;;;7.47;1.48;;;;;;;;;;5003340;28;20030;-83
2023/08/03 04:57:45;;;;;;;8.88;1.98;;;;;;;;;;4983728;28;20042;-83
2023/08/03 05:00:11;;;;;;;6.07;1.40;;;;;;;;;;4982128;28;20512;-83
2023/08/03 05:02:37;;;;;;;6.40;1.52;;;;;;;;;;4985267;28;20057;-83
2023/08/03 05:05:02;;;;;;;9.32;1.60;;;;;;;;;;4995421;28;20068;-82
2023/08/03 05:07:28;;;;;;;5.93;1.55;;;;;;;;;;4991815;28;20036;-83
2023/08/03 05:09:56;;;;;;;6.38;1.80;;;;;;;;;;5012286;28;20046;-82
2023/08/03 05:12:21;;;;;;;7.43;1.65;;;;;;;;;;4999272;28;20042;-83
2023/08/03 05:14:46;;;;;;;5.45;1.30;;;;;;;;;;5005680;28;20459;-83
2023/08/03 05:17:12;;;;;;;5.85;1.70;;;;;;;;;;4984418;28;20034;-83
2023/08/03 05:19:37;;;;;;;3.97;1.42;;;;;;;;;;4974854;28;20126;-83
2023/08/03 05:22:03;;;;;;;3.95;1.30;;;;;;;;;;5007421;28;20125;-83
2023/08/03 05:24:51;;;;;;;7.80;1.30;;;;;;;;;;5025745;28;20030;-82
2023/08/03 05:27:16;;;;;;;7.13;1.55;;;;;;;;;;5011514;28;20539;-83
2023/08/03 05:29:43;;;;;;;6.35;1.27;;;;;;;;;;4970699;28;20043;-83
2023/08/03 05:32:08;;;;;;;5.43;1.40;;;;;;;;;;4985759;28;20565;-83
2023/08/03 05:34:33;;;;;;;7.00;1.50;;;;;;;;;;4992797;28;20037;-83
2023/08/03 05:36:59;;;;;;;4.75;1.25;;;;;;;;;;5017786;28;20072;-83
2023/08/03 05:39:26;;;;;;;5.53;1.10;;;;;;;;;;5005948;28;20033;-83
2023/08/03 05:41:51;;;;;;;4.97;1.10;;;;;;;;;;5004955;28;20044;-82
2023/08/03 05:44:17;;;;;;;8.23;1.20;;;;;;;;;;5005557;28;20029;-83
2023/08/03 05:46:42;;;;;;;6.90;1.40;;;;;;;;;;5016160;28;20583;-83
2023/08/03 05:49:08;;;;;;;4.10;1.20;;;;;;;;;;4981588;28;20069;-83
2023/08/03 05:51:34;;;;;;;4.82;1.38;;;;;;;;;;4969306;28;20034;-83
2023/08/03 05:53:59;;;;;;;6.13;1.13;;;;;;;;;;4989552;28;20835;-83
2023/08/03 05:56:24;;;;;;;6.80;1.27;;;;;;;;;;4988051;28;20034;-83
2023/08/03 05:58:52;;;;;;;5.40;1.35;;;;;;;;;;5030513;28;20062;-84
2023/08/03 06:01:21;;;;;;;5.85;1.30;;;;;;;;;;4981169;28;20048;-83
2023/08/03 06:03:47;;;;;;;6.43;1.45;;;;;;;;;;4982647;28;20089;-83
2023/08/03 06:06:15;;;;;;;9.57;1.50;;;;;;;;;;5014371;28;20041;-83
2023/08/03 06:09:00;;;;;;;8.73;1.30;;;;;;;;;;5024410;28;20042;-83
2023/08/03 06:11:26;;;;;;;5.22;1.10;;;;;;;;;;5000794;28;20037;-83
2023/08/03 06:13:52;;;;;;;6.22;1.48;;;;;;;;;;5017294;28;20037;-82
2023/08/03 06:16:18;;;;;;;4.97;1.10;;;;;;;;;;5015492;28;20125;-83
2023/08/03 06:18:54;;;;;;;6.50;1.40;;;;;;;;;;4989057;28;20160;-83
2023/08/03 06:21:19;;;;;;;9.68;1.58;;;;;;;;;;4981120;28;20591;-83
2023/08/03 06:23:49;;;;;;;4.63;1.20;;;;;;;;;;5015489;28;20030;-82
2023/08/03 06:26:19;;;;;;;8.35;1.23;;;;;;;;;;4999570;28;20053;-84
2023/08/03 06:28:45;;;;;;;4.55;0.90;;;;;;;;;;4974091;28;20046;-83
2023/08/03 06:31:22;;;;;;;4.07;1.00;;;;;;;;;;4988037;28;20806;-82
2023/08/03 06:33:48;;;;;;;6.93;1.30;;;;;;;;;;5007717;28;20384;-81
2023/08/03 06:36:19;;;;;;;4.65;1.00;;;;;;;;;;4986599;28;20033;-83
2023/08/03 06:38:45;;;;;;;4.57;1.00;;;;;;;;;;5024058;28;20049;-84
2023/08/03 06:41:10;;;;;;;5.32;1.33;;;;;;;;;;4999593;28;20076;-83
2023/08/03 06:43:36;;;;;;;3.60;0.98;;;;;;;;;;5003306;28;20133;-83
2023/08/03 06:46:02;;;;;;;3.75;1.00;;;;;;;;;;4980638;28;20033;-83
2023/08/03 06:48:28;;;;;;;4.43;0.90;;;;;;;;;;5012855;28;20520;-84
2023/08/03 06:50:54;;;;;;;6.13;1.42;;;;;;;;;;5016648;28;20041;-83
2023/08/03 06:53:23;;;;;;;7.35;0.90;;;;;;;;;;4993489;28;20034;-82
2023/08/03 06:55:49;;;;;;;4.85;0.73;;;;;;;;;;4977918;28;20120;-83
2023/08/03 06:58:15;;;;;;;5.72;1.02;;;;;;;;;;4999062;28;20116;-84
2023/08/03 07:00:44;;;;;;;4.93;1.00;;;;;;;;;;4983908;28;20554;-83
2023/08/03 07:03:10;;;;;;;4.40;0.93;;;;;;;;;;4974086;28;20050;-82
2023/08/03 07:05:35;;;;;;;5.68;0.90;;;;;;;;;;4970634;28;20045;-83
2023/08/03 07:08:00;;;;;;;4.75;0.88;;;;;;;;;;4982353;28;20037;-83
2023/08/03 07:10:26;;;;;;;5.10;1.08;;;;;;;;;;4994841;28;20034;-83
2023/08/03 07:12:52;;;;;;;3.83;0.90;;;;;;;;;;4985046;28;20509;-82
2023/08/03 07:15:18;;;;;;;3.58;0.73;;;;;;;;;;4994762;28;20045;-84
2023/08/03 07:17:43;;;;;;;4.40;0.80;;;;;;;;;;4987065;28;20042;-83
2023/08/03 07:20:09;;;;;;;8.10;1.00;;;;;;;;;;5003438;28;20589;-84
2023/08/03 07:22:36;;;;;;;4.47;0.98;;;;;;;;;;4995808;28;20033;-83
2023/08/03 07:25:03;;;;;;;5.63;1.02;;;;;;;;;;4987173;28;20101;-83
2023/08/03 07:27:28;;;;;;;4.63;1.02;;;;;;;;;;4996251;28;20029;-84
2023/08/03 07:29:56;;;;;;;3.20;0.50;;;;;;;;;;5016567;28;20521;-82
2023/08/03 07:32:21;;;;;;;4.00;0.85;;;;;;;;;;5018869;28;20044;-82
2023/08/03 07:34:47;;;;;;;3.75;0.80;;;;;;;;;;4982617;28;20071;-83
2023/08/03 07:37:12;;;;;;;6.13;0.70;;;;;;;;;;5011668;28;20037;-82
2023/08/03 07:39:37;;;;;;;3.58;0.70;;;;;;;;;;5002290;28;20433;-82
2023/08/03 07:42:03;;;;;;;3.63;0.77;;;;;;;;;;4986711;28;20050;-82
2023/08/03 07:44:28;;;;;;;4.25;0.60;;;;;;;;;;4991501;28;20034;-83
2023/08/03 07:46:54;;;;;;;5.53;0.70;;;;;;;;;;4984151;28;20096;-82
2023/08/03 07:49:20;;;;;;;6.55;0.90;;;;;;;;;;4996510;28;20037;-82
2023/08/03 07:51:47;;;;;;;3.25;0.90;;;;;;;;;;4982664;28;20035;-83
2023/08/03 07:54:13;;;;;;;5.45;0.90;;;;;;;;;;5001458;28;20025;-82
2023/08/03 07:56:38;;;;;;;3.83;0.73;;;;;;;;;;4990271;28;20103;-82
2023/08/03 07:59:04;;;;;;;3.10;0.60;;;;;;;;;;5003193;28;20041;-82
2023/08/03 08:01:30;;;;;;;5.38;0.60;;;;;;;;;;4986372;28;20428;-83
2023/08/03 08:03:56;;;;;;;3.63;0.80;;;;;;;;;;4990171;28;20053;-83
2023/08/03 08:06:24;;;;;;;4.85;0.77;;;;;;;;;;5012249;28;20045;-82
2023/08/03 08:08:51;;;;;;;5.75;0.70;;;;;;;;;;4997332;28;20045;-83
2023/08/03 08:11:18;;;;;;;2.83;0.57;;;;;;;;;;5005390;28;20377;-82
2023/08/03 08:13:59;;;;;;;3.15;0.60;;;;;;;;;;5016330;28;20469;-82
2023/08/03 08:16:25;;;;;;;2.63;0.63;;;;;;;;;;4992929;28;20068;-82
2023/08/03 08:18:50;;;;;;;3.88;0.80;;;;;;;;;;5011499;28;20456;-83
2023/08/03 08:21:16;;;;;;;4.00;0.75;;;;;;;;;;5004575;28;20077;-84
2023/08/03 08:23:41;;;;;;;5.05;0.73;;;;;;;;;;5023026;28;20057;-83
2023/08/03 08:26:09;;;;;;;2.40;0.50;;;;;;;;;;5003031;28;20033;-83
2023/08/03 08:28:35;;;;;;;3.95;0.60;;;;;;;;;;5013779;28;20099;-82
2023/08/03 08:31:00;;;;;;;2.00;0.40;;;;;;;;;;5004467;28;20037;-83
2023/08/03 08:33:25;;;;;;;1.40;0.25;;;;;;;;;;5010555;28;20038;-82
2023/08/03 08:35:51;;;;;;;3.63;0.50;;;;;;;;;;4999413;28;20038;-83
2023/08/03 08:38:16;;;;;;;1.77;0.30;;;;;;;;;;5000788;28;20120;-83
2023/08/03 08:40:48;;;;;;;4.15;0.40;;;;;;;;;;4989828;28;20040;-83
2023/08/03 08:43:13;;;;;;;3.45;0.40;;;;;;;;;;5002609;28;20505;-83
2023/08/03 08:45:40;;;;;;;1.13;0.20;;;;;;;;;;5003506;28;20074;-82
2023/08/03 08:48:05;;;;;;;1.58;0.30;;;;;;;;;;5014315;28;20404;-83
2023/08/03 08:50:32;;;;;;;1.90;0.57;;;;;;;;;;5003612;28;20033;-83
2023/08/03 08:52:58;;;;;;;2.30;0.50;;;;;;;;;;5001196;28;20040;-83
2023/08/03 08:55:28;;;;;;;2.67;0.30;;;;;;;;;;4985784;28;20038;-83
2023/08/03 08:57:55;;;;;;;3.58;0.50;;;;;;;;;;4977133;28;20038;-83
2023/08/03 09:00:23;;;;;;;2.45;0.40;;;;;;;;;;4992363;28;20038;-82
2023/08/03 09:02:49;;;;;;;5.43;1.40;;;;;;;;;;4995374;28;20049;-84
2023/08/03 09:05:18;;;;;;;3.67;0.50;;;;;;;;;;4984204;28;20050;-84
2023/08/03 09:08:02;;;;;;;3.33;0.40;;;;;;;;;;4983669;28;21060;-83
2023/08/03 09:10:28;;;;;;;2.13;0.30;;;;;;;;;;5007179;28;20617;-84
2023/08/03 09:12:54;;;;;;;1.92;0.30;;;;;;;;;;5000098;28;20038;-83
2023/08/03 09:15:40;;;;;;;0.93;0.20;;;;;;;;;;5001948;28;20064;-84
2023/08/03 09:18:06;;;;;;;2.80;0.38;;;;;;;;;;5002881;28;20049;-84
2023/08/03 09:20:32;;;;;;;1.17;0.20;;;;;;;;;;4988841;28;20033;-84
2023/08/03 09:22:58;;;;;;;2.30;0.28;;;;;;;;;;4982212;28;20121;-84
2023/08/03 09:25:24;;;;;;;3.78;0.43;;;;;;;;;;4979290;28;20164;-84
2023/08/03 09:27:51;;;;;;;2.13;0.43;;;;;;;;;;4990821;28;20054;-84
2023/08/03 09:30:17;;;;;;;2.47;0.40;;;;;;;;;;4996968;28;20030;-85
2023/08/03 09:32:43;;;;;;;0.95;0.30;;;;;;;;;;4999725;28;20042;-83
2023/08/03 09:35:22;;;;;;;3.05;0.20;;;;;;;;;;4977390;28;20038;-82
2023/08/03 09:37:50;;;;;;;1.58;0.30;;;;;;;;;;5014138;28;20486;-83
2023/08/03 09:40:17;;;;;;;1.73;0.40;;;;;;;;;;5023468;28;20032;-84
2023/08/03 09:42:48;;;;;;;2.03;0.30;;;;;;;;;;4988711;28;20038;-82
2023/08/03 09:45:14;;;;;;;2.22;0.20;;;;;;;;;;4997291;28;20482;-83
2023/08/03 09:47:40;;;;;;;1.88;0.40;;;;;;;;;;4988944;28;20389;-83
2023/08/03 09:50:07;;;;;;;1.80;0.20;;;;;;;;;;4995042;28;20034;-83
2023/08/03 09:52:38;;;;;;;1.58;0.20;;;;;;;;;;5007736;28;20511;-84
2023/08/03 09:55:12;;;;;;;1.30;0.28;;;;;;;;;;5002361;28;20053;-84
2023/08/03 09:57:43;;;;;;;0.70;0.13;;;;;;;;;;5020581;28;20045;-82
2023/08/03 10:00:11;;;;;;;1.75;0.20;;;;;;;;;;5002047;28;20082;-83
2023/08/03 10:02:53;;;;;;;2.92;0.20;;;;;;;;;;5011569;28;20050;-83
2023/08/03 10:05:20;;;;;;;3.33;0.30;;;;;;;;;;5001231;28;20606;-82
2023/08/03 10:08:00;;;;;;;1.30;0.20;;;;;;;;;;5008685;28;20062;-82
2023/08/03 10:10:27;;;;;;;0.98;0.10;;;;;;;;;;4991376;28;20402;-82
2023/08/03 10:12:56;;;;;;;1.20;0.20;;;;;;;;;;5004662;28;20038;-82
2023/08/03 10:15:22;;;;;;;3.13;0.30;;;;;;;;;;4997425;28;20137;-84
2023/08/03 10:17:47;;;;;;;2.83;0.28;;;;;;;;;;5012199;28;20636;-83
2023/08/03 10:20:13;;;;;;;2.47;0.28;;;;;;;;;;5009313;28;20125;-83
2023/08/03 10:23:11;;;;;;;2.35;0.35;;;;;;;;;;4975594;28;20051;-82
2023/08/03 10:25:53;;;;;;;2.20;0.40;;;;;;;;;;4992187;28;20473;-82
2023/08/03 10:28:25;;;;;;;1.83;0.30;;;;;;;;;;4997028;28;20034;-82
2023/08/03 10:31:07;;;;;;;3.28;0.30;;;;;;;;;;5016381;28;20040;-82
2023/08/03 10:33:56;;;;;;;1.45;0.25;;;;;;;;;;5014753;28;20037;-82
2023/08/03 10:36:27;;;;;;;2.10;0.30;;;;;;;;;;5017980;28;20037;-83
2023/08/03 10:38:57;;;;;;;1.92;0.38;;;;;;;;;;5031398;28;20052;-83
2023/08/03 10:41:51;;;;;;;3.90;0.35;;;;;;;;;;4998131;28;20041;-82
2023/08/03 10:44:20;;;;;;;5.25;0.50;;;;;;;;;;5009814;28;20113;-82
2023/08/03 10:46:47;;;;;;;2.58;0.20;;;;;;;;;;5020164;28;20556;-83
2023/08/03 10:49:19;;;;;;;5.72;0.30;;;;;;;;;;4977524;28;20111;-83
2023/08/03 10:51:49;;;;;;;1.42;0.30;;;;;;;;;;5015765;28;20096;-84
2023/08/03 10:54:15;;;;;;;1.80;0.30;;;;;;;;;;5002286;28;20520;-84
2023/08/03 10:57:07;;;;;;;1.63;0.30;;;;;;;;;;5003552;28;20038;-84
2023/08/03 10:59:47;;;;;;;1.80;0.20;;;;;;;;;;4982642;28;20352;-83
2023/08/03 11:02:21;;;;;;;2.08;0.30;;;;;;;;;;5014769;28;21579;-82
2023/08/03 11:04:50;;;;;;;1.30;0.20;;;;;;;;;;5016336;28;20046;-83
2023/08/03 11:07:21;;;;;;;2.35;0.30;;;;;;;;;;5005520;28;20435;-83
2023/08/03 11:09:51;;;;;;;2.67;0.30;;;;;;;;;;5002804;28;20037;-83
2023/08/03 11:12:17;;;;;;;3.70;0.60;;;;;;;;;;5006329;28;20042;-81
2023/08/03 11:14:50;;;;;;;1.13;0.25;;;;;;;;;;5002011;28;20085;-82
2023/08/03 11:17:15;;;;;;;4.50;0.40;;;;;;;;;;4982318;28;20180;-82
2023/08/03 11:19:42;;;;;;;3.25;0.70;;;;;;;;;;5008897;28;20154;-84
2023/08/03 11:22:08;;;;;;;3.67;0.73;;;;;;;;;;5004848;28;20034;-83
2023/08/03 11:24:36;;;;;;;4.15;0.60;;;;;;;;;;5005950;28;20123;-83
2023/08/03 11:27:03;;;;;;;2.55;0.60;;;;;;;;;;5005833;28;20527;-82
2023/08/03 11:29:29;;;;;;;3.67;0.50;;;;;;;;;;5000629;28;20045;-83
2023/08/03 11:31:55;;;;;;;5.13;0.85;;;;;;;;;;5005339;28;20040;-83
2023/08/03 11:34:25;;;;;;;2.05;0.40;;;;;;;;;;5007361;28;20120;-83
2023/08/03 11:36:51;;;;;;;2.35;0.40;;;;;;;;;;4999897;28;20037;-82
2023/08/03 11:39:18;;;;;;;1.05;0.30;;;;;;;;;;5001381;28;20029;-83
2023/08/03 11:41:44;;;;;;;2.13;0.70;;;;;;;;;;5006778;28;20038;-83
2023/08/03 11:44:09;;;;;;;1.98;0.50;;;;;;;;;;4996125;28;20037;-83
2023/08/03 11:46:35;;;;;;;3.05;0.60;;;;;;;;;;5002736;28;20069;-84
2023/08/03 11:49:03;;;;;;;1.67;0.30;;;;;;;;;;5005912;28;20030;-84
2023/08/03 11:51:43;;;;;;;0.63;0.20;;;;;;;;;;4998985;28;20041;-82
2023/08/03 11:54:10;;;;;;;1.65;0.25;;;;;;;;;;5019532;28;20149;-83
2023/08/03 11:56:37;;;;;;;2.92;0.20;;;;;;;;;;5002564;28;20405;-84
2023/08/03 11:59:04;;;;;;;1.05;0.20;;;;;;;;;;4998518;28;20495;-83
2023/08/03 12:01:30;;;;;;;0.55;0.20;;;;;;;;;;4994836;28;20141;-82
2023/08/03 12:04:09;;;;;;;3.30;0.20;;;;;;;;;;5016948;28;20476;-83
2023/08/03 12:06:45;;;;;;;1.73;0.20;;;;;;;;;;5013653;28;20061;-83
2023/08/03 12:09:16;;;;;;;2.00;0.28;;;;;;;;;;5000078;28;20112;-82
2023/08/03 12:11:41;;;;;;;1.23;0.30;;;;;;;;;;4993177;28;20396;-83
2023/08/03 12:14:06;;;;;;;2.72;0.40;;;;;;;;;;5003332;28;20037;-84
2023/08/03 12:16:32;;;;;;;0.95;0.20;;;;;;;;;;4988470;28;20496;-84
2023/08/03 12:18:57;;;;;;;2.63;0.30;;;;;;;;;;4989707;28;20068;-84
2023/08/03 12:21:23;;;;;;;1.80;0.43;;;;;;;;;;5001797;28;20042;-83
2023/08/03 12:23:48;;;;;;;1.88;0.40;;;;;;;;;;5014871;28;20711;-83
2023/08/03 12:26:13;;;;;;;2.22;0.47;;;;;;;;;;5002308;28;20034;-83
2023/08/03 12:28:39;;;;;;;2.10;0.55;;;;;;;;;;4997770;28;20037;-83
2023/08/03 12:31:05;;;;;;;3.92;0.60;;;;;;;;;;5002279;28;20141;-83
2023/08/03 12:33:30;;;;;;;2.65;0.50;;;;;;;;;;5006291;28;20421;-83
2023/08/03 12:35:56;;;;;;;1.70;0.40;;;;;;;;;;4996072;28;20048;-83
2023/08/03 12:38:21;;;;;;;1.80;0.40;;;;;;;;;;5013011;28;20048;-83
2023/08/03 12:40:46;;;;;;;2.08;0.40;;;;;;;;;;4997631;28;20041;-83
2023/08/03 12:43:12;;;;;;;2.22;0.30;;;;;;;;;;5002270;28;20405;-83
2023/08/03 12:45:37;;;;;;;2.58;0.40;;;;;;;;;;5002378;28;20408;-83
2023/08/03 12:48:03;;;;;;;1.30;0.30;;;;;;;;;;5011297;28;20443;-82
2023/08/03 12:50:29;;;;;;;3.13;0.40;;;;;;;;;;5002191;28;20129;-83
2023/08/03 12:52:57;;;;;;;1.63;0.30;;;;;;;;;;5009468;28;20058;-83
2023/08/03 12:55:23;;;;;;;3.08;0.47;;;;;;;;;;5007195;28;20041;-81
2023/08/03 12:57:49;;;;;;;2.03;0.30;;;;;;;;;;5009682;28;20512;-81
2023/08/03 13:00:14;;;;;;;1.90;0.30;;;;;;;;;;4983185;28;20042;-83
2023/08/03 13:02:42;;;;;;;4.28;0.43;;;;;;;;;;4987794;28;20056;-81
2023/08/03 13:05:08;;;;;;;1.50;0.25;;;;;;;;;;4991781;28;20050;-82
2023/08/03 13:07:33;;;;;;;3.33;0.47;;;;;;;;;;4982145;28;20038;-84
2023/08/03 13:10:00;;;;;;;1.35;0.30;;;;;;;;;;4998091;28;20092;-82
2023/08/03 13:12:26;;;;;;;1.15;0.32;;;;;;;;;;4982115;28;20038;-82
2023/08/03 13:14:51;;;;;;;1.55;0.30;;;;;;;;;;4990116;28;20497;-83
2023/08/03 13:17:16;;;;;;;1.35;0.38;;;;;;;;;;4998919;28;20034;-83
2023/08/03 13:19:44;;;;;;;1.30;0.30;;;;;;;;;;4985849;28;20026;-83
2023/08/03 13:22:09;;;;;;;0.80;0.20;;;;;;;;;;4988833;28;20037;-83
2023/08/03 13:24:35;;;;;;;2.50;0.40;;;;;;;;;;4995468;28;20117;-83
2023/08/03 13:27:17;;;;;;;1.35;0.30;;;;;;;;;;4977052;28;20045;-84
2023/08/03 13:29:44;;;;;;;4.78;0.40;;;;;;;;;;5007242;28;20034;-83
2023/08/03 13:32:10;;;;;;;2.10;0.30;;;;;;;;;;4994407;28;20092;-83
2023/08/03 13:34:35;;;;;;;0.60;0.20;;;;;;;;;;5005720;28;20038;-83
2023/08/03 13:37:03;;;;;;;7.22;0.60;;;;;;;;;;5011669;28;20033;-83
2023/08/03 13:39:28;;;;;;;2.95;0.40;;;;;;;;;;4997839;28;20034;-83
2023/08/03 13:41:54;;;;;;;2.15;0.40;;;;;;;;;;4998656;28;20042;-82
2023/08/03 13:44:19;;;;;;;1.50;0.40;;;;;;;;;;5002390;28;20116;-83
2023/08/03 13:46:44;;;;;;;1.80;0.50;;;;;;;;;;5016071;28;20045;-83
2023/08/03 13:49:10;;;;;;;0.50;0.20;;;;;;;;;;5015305;28;20386;-82
2023/08/03 13:51:35;;;;;;;1.25;0.38;;;;;;;;;;5017506;28;20034;-83
2023/08/03 13:54:01;;;;;;;4.07;0.45;;;;;;;;;;5007537;28;20045;-83
2023/08/03 13:56:26;;;;;;;2.05;0.30;;;;;;;;;;4996578;28;20046;-83
2023/08/03 13:58:51;;;;;;;1.40;0.35;;;;;;;;;;5016431;28;20034;-83
2023/08/03 14:01:17;;;;;;;2.15;0.30;;;;;;;;;;5004228;28;20122;-82
2023/08/03 14:03:54;;;;;;;2.90;0.40;;;;;;;;;;5013833;28;20574;-83
2023/08/03 14:06:20;;;;;;;1.60;0.40;;;;;;;;;;5016835;28;21017;-82
2023/08/03 14:08:45;;;;;;;3.42;0.40;;;;;;;;;;5008513;28;20088;-84
2023/08/03 14:11:11;;;;;;;4.18;0.50;;;;;;;;;;5006986;28;20030;-82
2023/08/03 14:13:36;;;;;;;1.90;0.30;;;;;;;;;;5009688;28;20034;-83
2023/08/03 14:16:06;;;;;;;4.35;0.40;;;;;;;;;;5003706;28;20120;-83
2023/08/03 14:18:32;;;;;;;2.55;0.30;;;;;;;;;;5007282;28;20530;-82
2023/08/03 14:21:00;;;;;;;1.98;0.50;;;;;;;;;;5008005;28;20038;-83
2023/08/03 14:23:25;;;;;;;1.17;0.30;;;;;;;;;;5015545;28;20048;-83
2023/08/03 14:25:50;;;;;;;0.85;0.30;;;;;;;;;;5008075;28;20029;-85
2023/08/03 14:28:16;;;;;;;0.55;0.20;;;;;;;;;;5021129;28;20518;-82
2023/08/03 14:30:41;;;;;;;2.47;0.47;;;;;;;;;;5015683;28;20446;-82
2023/08/03 14:33:07;;;;;;;1.40;0.50;;;;;;;;;;5020885;28;20037;-83
2023/08/03 14:35:33;;;;;;;4.43;0.60;;;;;;;;;;4996603;28;20030;-82
2023/08/03 14:37:59;;;;;;;2.38;0.50;;;;;;;;;;4998085;28;20709;-82
2023/08/03 14:40:24;;;;;;;2.60;0.65;;;;;;;;;;4997754;28;20029;-83
2023/08/03 14:42:50;;;;;;;2.20;0.77;;;;;;;;;;4989489;28;20398;-83